Terminal Aerodrome Forecast
Issued by NWS Twin Cities, MN

Home | Current Version | Previous Version | Graphics & Text | Print | Product List | Glossary On
Versions: 1 2 3 4 5 6 7 8 9 10 11 12 13 14 15 16 17 18
000
FTUS43 KMPX 290536
TAFEAU
TAF
KEAU 290536Z 2906/3006 VRB04KT 6SM BR OVC012
      TEMPO 2906/2910 2SM -FZDZSN BR OVC007
     FM291000 31011KT 4SM -FZDZSN BR OVC009
     FM291200 32016G23KT P6SM OVC012
     FM292100 32013G20KT P6SM BKN020
     FM300200 34010KT P6SM SCT020=

USA.gov is the U.S. government's official web portal to all federal, state and local government web resources and services.